Terminal Aerodrome Forecast
Issued by NWS Twin Cities, MN

Home | Current Version | Previous Version | Text Only | Print | Product List | Glossary On
Versions: 1 2 3 4 5 6 7 8 9 10 11 12 13 14 15 16 17
366
FTUS43 KMPX 271602 AAA
TAFSTC
TAF AMD
KSTC 271602Z 2716/2812 34003KT P6SM SCT025 OVC040
      TEMPO 2716/2718 3SM -TSRA BKN025CB
     FM271800 01006KT P6SM OVC035
     FM280400 01003KT P6SM OVC012
     FM280800 01003KT 3SM BR OVC006=

USA.gov is the U.S. government's official web portal to all federal, state and local government web resources and services.